createdAt,value
2019-01-22T00:01:54.444Z,62.10
2019-01-22T00:04:25.616Z,62.10
2019-01-22T00:06:56.593Z,62.30
2019-01-22T00:09:29.043Z,62.40
2019-01-22T00:12:00.571Z,62.30
2019-01-22T00:14:31.784Z,62.30
2019-01-22T00:17:02.837Z,62.60
2019-01-22T00:19:33.944Z,62.50
2019-01-22T00:22:05.584Z,62.60
2019-01-22T00:24:36.872Z,62.60
2019-01-22T00:27:08.891Z,62.50
2019-01-22T00:29:39.986Z,62.50
2019-01-22T00:32:11.026Z,62.60
2019-01-22T00:34:42.151Z,62.60
2019-01-22T00:37:13.228Z,62.30
2019-01-22T00:39:44.251Z,62.40
2019-01-22T00:42:15.681Z,62.60
2019-01-22T00:44:46.677Z,62.50
2019-01-22T00:47:18.157Z,62.60
2019-01-22T00:49:49.213Z,62.40
2019-01-22T00:52:20.172Z,62.20
2019-01-22T00:54:51.248Z,62.10
2019-01-22T00:57:23.605Z,62.20
2019-01-22T00:59:54.815Z,62.10
2019-01-22T01:02:25.947Z,61.90
2019-01-22T01:04:57.107Z,61.80
2019-01-22T01:07:28.374Z,61.80
2019-01-22T01:09:59.586Z,61.80
2019-01-22T01:12:30.665Z,61.70
2019-01-22T01:15:01.825Z,61.80
2019-01-22T01:17:33.045Z,61.80
2019-01-22T01:20:04.417Z,61.80
2019-01-22T01:22:36.077Z,61.80
2019-01-22T01:25:09.706Z,61.80
2019-01-22T01:27:40.904Z,62.00
2019-01-22T01:30:14.653Z,62.00
2019-01-22T01:32:46.684Z,62.00
2019-01-22T01:35:17.959Z,62.10
2019-01-22T01:37:49.034Z,62.10
2019-01-22T01:40:20.677Z,61.90
2019-01-22T01:42:52.230Z,61.70
2019-01-22T01:45:23.344Z,61.70
2019-01-22T01:47:54.314Z,61.40
2019-01-22T01:50:25.568Z,61.50
2019-01-22T01:52:56.617Z,61.30
2019-01-22T01:55:27.878Z,61.40
2019-01-22T01:57:59.401Z,61.40
2019-01-22T02:00:30.523Z,61.40
2019-01-22T02:03:01.569Z,61.50
2019-01-22T02:05:33.290Z,61.60
2019-01-22T02:08:04.402Z,61.70
2019-01-22T02:10:35.895Z,61.70
2019-01-22T02:13:10.281Z,61.60
2019-01-22T02:15:50.276Z,61.60
2019-01-22T02:18:43.286Z,61.40
2019-01-22T02:21:45.324Z,61.40
2019-01-22T02:24:49.416Z,61.20
2019-01-22T02:27:55.069Z,61.50
2019-01-22T02:31:15.695Z,61.60
2019-01-22T02:34:20.693Z,61.60
2019-01-22T02:37:32.252Z,61.70
2019-01-22T02:40:15.662Z,61.40
2019-01-22T02:43:34.898Z,61.70
2019-01-22T02:46:30.403Z,62.40
2019-01-22T02:49:44.114Z,62.00
2019-01-22T02:53:07.446Z,62.00
2019-01-22T02:56:03.900Z,62.00
2019-01-22T02:58:58.484Z,62.30
2019-01-22T03:02:40.016Z,62.50
2019-01-22T03:05:26.114Z,62.30
2019-01-22T03:08:35.193Z,62.10
2019-01-22T03:11:20.188Z,61.90
2019-01-22T03:14:00.289Z,61.70
2019-01-22T03:17:07.319Z,61.60
2019-01-22T03:20:20.586Z,61.40
2019-01-22T03:23:46.430Z,61.50
2019-01-22T03:27:07.099Z,61.80
2019-01-22T03:30:39.574Z,61.90
2019-01-22T03:33:43.872Z,62.10
2019-01-22T03:37:10.554Z,62.10
2019-01-22T03:39:59.763Z,61.90
2019-01-22T03:43:29.495Z,61.90
2019-01-22T03:46:42.204Z,61.90
2019-01-22T03:49:37.799Z,62.70
2019-01-22T03:52:42.723Z,61.90
2019-01-22T03:55:50.246Z,61.90
2019-01-22T03:58:22.359Z,62.00
2019-01-22T04:01:25.713Z,61.80
2019-01-22T04:03:57.007Z,61.80
2019-01-22T04:06:59.698Z,61.90
2019-01-22T04:09:33.857Z,61.80
2019-01-22T04:12:05.343Z,61.80
2019-01-22T04:14:36.553Z,61.70
2019-01-22T04:17:08.717Z,61.90
2019-01-22T04:19:39.774Z,62.00
2019-01-22T04:22:17.324Z,62.10
2019-01-22T04:25:24.335Z,62.20
2019-01-22T04:28:18.306Z,62.10
2019-01-22T04:31:34.978Z,62.10
2019-01-22T04:34:38.265Z,62.20
2019-01-22T04:37:50.085Z,62.40
2019-01-22T04:41:02.266Z,62.10
2019-01-22T04:44:29.105Z,62.00
2019-01-22T04:47:34.334Z,61.90
2019-01-22T04:50:38.475Z,62.00
2019-01-22T04:54:01.663Z,62.10
2019-01-22T04:56:57.613Z,62.10
2019-01-22T04:59:56.981Z,61.60
2019-01-22T05:02:58.898Z,61.50
2019-01-22T05:06:19.647Z,61.00
2019-01-22T05:09:08.074Z,60.90
2019-01-22T05:12:16.686Z,61.10
2019-01-22T05:15:18.576Z,61.40
2019-01-22T05:18:27.608Z,61.60
2019-01-22T05:21:34.914Z,61.80
2019-01-22T05:28:00.478Z,62.00
2019-01-22T05:30:59.249Z,62.20
2019-01-22T05:33:58.547Z,62.40
2019-01-22T05:37:08.664Z,62.20
2019-01-22T05:40:16.027Z,62.20
2019-01-22T05:43:23.309Z,62.50
2019-01-22T05:46:22.928Z,62.60
2019-01-22T05:49:04.866Z,62.70
2019-01-22T05:52:14.668Z,62.70
2019-01-22T05:55:05.876Z,62.70
2019-01-22T05:58:03.676Z,62.60
2019-01-22T06:01:03.254Z,62.60
2019-01-22T06:04:11.727Z,62.50
2019-01-22T06:07:14.594Z,62.40
2019-01-22T06:10:41.627Z,62.30
2019-01-22T06:13:30.837Z,62.30
2019-01-22T06:16:33.025Z,62.40
2019-01-22T06:19:13.525Z,62.50
2019-01-22T06:22:29.175Z,62.40
2019-01-22T06:25:49.661Z,62.50
2019-01-22T06:29:00.978Z,62.30
2019-01-22T06:32:28.196Z,62.20
2019-01-22T06:35:40.287Z,62.20
2019-01-22T06:38:31.800Z,62.20
2019-01-22T06:41:55.720Z,62.20
2019-01-22T06:45:00.553Z,62.20
2019-01-22T06:47:50.214Z,62.40
2019-01-22T06:50:55.024Z,62.60
2019-01-22T06:53:48.086Z,62.50
2019-01-22T06:56:41.807Z,62.50
2019-01-22T06:59:23.715Z,62.70
2019-01-22T07:02:33.892Z,62.60
2019-01-22T07:05:55.087Z,62.50
2019-01-22T07:09:08.122Z,62.50
2019-01-22T07:12:05.980Z,62.60
2019-01-22T07:15:35.985Z,62.50
2019-01-22T07:18:32.559Z,62.40
2019-01-22T07:21:28.644Z,62.10
2019-01-22T07:24:17.985Z,62.00
2019-01-22T07:27:12.894Z,61.80
2019-01-22T07:30:31.768Z,61.80
2019-01-22T07:33:41.968Z,61.50
2019-01-22T07:36:44.368Z,61.50
2019-01-22T07:39:47.488Z,61.10
2019-01-22T07:42:47.836Z,60.60
2019-01-22T07:45:52.216Z,60.30
2019-01-22T07:48:32.651Z,59.90
2019-01-22T07:51:41.956Z,59.10
2019-01-22T07:54:38.248Z,58.70
2019-01-22T07:57:35.978Z,58.00
2019-01-22T08:00:28.348Z,57.80
2019-01-22T08:04:14.006Z,57.50
2019-01-22T08:07:05.844Z,57.50
2019-01-22T08:10:11.649Z,56.60
2019-01-22T08:13:06.340Z,55.80
2019-01-22T08:15:54.215Z,54.80
2019-01-22T08:19:10.839Z,54.50
2019-01-22T08:22:40.636Z,53.80
2019-01-22T08:26:03.080Z,53.60
2019-01-22T08:28:47.097Z,52.90
2019-01-22T08:32:08.935Z,51.80
2019-01-22T08:35:24.838Z,50.80
2019-01-22T08:38:26.329Z,50.10
2019-01-22T08:41:38.132Z,49.70
2019-01-22T08:47:49.727Z,49.40
2019-01-22T08:51:10.569Z,49.20
2019-01-22T08:54:34.408Z,48.50
2019-01-22T08:57:27.662Z,48.50
2019-01-22T09:00:10.520Z,47.70
2019-01-22T09:03:14.613Z,47.60
2019-01-22T09:06:06.795Z,47.80
2019-01-22T09:09:13.507Z,47.10
2019-01-22T09:12:30.835Z,47.00
2019-01-22T09:15:21.425Z,46.30
2019-01-22T09:18:09.472Z,46.00
2019-01-22T09:21:27.802Z,46.30
2019-01-22T09:24:40.731Z,45.90
2019-01-22T09:27:54.009Z,45.70
2019-01-22T09:30:44.981Z,45.20
2019-01-22T09:34:18.217Z,45.40
2019-01-22T09:37:13.359Z,44.60
2019-01-22T09:39:44.975Z,44.30
2019-01-22T09:42:16.769Z,44.40
2019-01-22T09:44:47.942Z,44.10
2019-01-22T09:47:19.666Z,43.50
2019-01-22T09:49:51.274Z,43.20
2019-01-22T09:52:22.366Z,43.40
2019-01-22T09:54:53.939Z,44.20
2019-01-22T09:57:24.889Z,44.10
2019-01-22T09:59:56.745Z,44.20
2019-01-22T10:02:27.904Z,44.10
2019-01-22T10:04:58.928Z,44.00
2019-01-22T10:07:29.835Z,43.30
2019-01-22T10:10:01.701Z,43.50
2019-01-22T10:12:32.602Z,43.20
2019-01-22T10:15:04.523Z,42.00
2019-01-22T10:17:35.489Z,42.10
2019-01-22T10:20:08.778Z,41.60
2019-01-22T10:22:39.882Z,41.80
2019-01-22T10:25:11.169Z,41.20
2019-01-22T10:30:14.367Z,41.10
2019-01-22T10:32:45.196Z,40.20
2019-01-22T10:35:16.487Z,39.80
2019-01-22T10:37:47.501Z,39.90
2019-01-22T10:40:20.691Z,40.20
2019-01-22T10:42:51.944Z,40.20
2019-01-22T10:45:22.953Z,40.00
2019-01-22T10:47:53.850Z,40.40
2019-01-22T10:50:24.920Z,40.60
2019-01-22T10:52:55.939Z,40.60
2019-01-22T10:55:26.959Z,41.50
2019-01-22T10:57:58.037Z,41.40
2019-01-22T11:00:31.206Z,40.70
2019-01-22T11:03:02.101Z,40.80
2019-01-22T11:05:35.253Z,39.90
2019-01-22T11:08:06.468Z,40.60
2019-01-22T11:10:37.462Z,40.40
2019-01-22T11:13:08.616Z,41.00
2019-01-22T11:15:39.560Z,40.70
2019-01-22T11:18:10.366Z,41.00
2019-01-22T11:20:41.241Z,40.90
2019-01-22T11:23:12.229Z,40.40
2019-01-22T11:25:43.748Z,40.70
2019-01-22T11:28:14.737Z,40.60
2019-01-22T11:30:45.853Z,40.10
2019-01-22T11:33:16.772Z,40.30
2019-01-22T11:35:47.858Z,39.90
2019-01-22T11:38:18.797Z,39.30
2019-01-22T11:40:49.924Z,38.80
2019-01-22T11:43:20.745Z,39.10
2019-01-22T11:45:51.610Z,38.60
2019-01-22T11:48:22.745Z,38.40
2019-01-22T11:50:53.660Z,38.50
2019-01-22T11:53:25.627Z,38.30
2019-01-22T11:55:57.850Z,38.50
2019-01-22T11:58:28.801Z,38.50
2019-01-22T12:00:58.641Z,39.00
2019-01-22T12:03:29.656Z,38.50
2019-01-22T12:06:00.533Z,38.80
2019-01-22T12:08:32.690Z,38.10
2019-01-22T12:11:03.591Z,37.90
2019-01-22T12:13:34.480Z,37.90
2019-01-22T12:16:05.442Z,37.70
2019-01-22T12:18:36.296Z,37.50
2019-01-22T12:21:08.372Z,37.50
2019-01-22T12:23:39.296Z,37.40
2019-01-22T12:26:10.295Z,36.90
2019-01-22T12:28:41.543Z,37.30
2019-01-22T12:31:12.528Z,36.70
2019-01-22T12:33:44.058Z,36.90
2019-01-22T12:36:15.089Z,36.80
2019-01-22T12:38:46.016Z,37.20
2019-01-22T12:41:17.538Z,36.90
2019-01-22T12:43:48.460Z,36.90
2019-01-22T12:46:19.433Z,36.90
2019-01-22T12:48:50.237Z,36.40
2019-01-22T12:51:21.120Z,35.90
2019-01-22T12:53:51.913Z,35.80
2019-01-22T12:56:23.869Z,36.50
2019-01-22T12:58:54.676Z,35.00
2019-01-22T13:01:25.653Z,34.40
2019-01-22T13:03:56.688Z,34.70
2019-01-22T13:06:27.624Z,34.70
2019-01-22T13:08:58.453Z,34.10
2019-01-22T13:11:29.446Z,34.30
2019-01-22T13:14:00.286Z,34.70
2019-01-22T13:16:31.255Z,34.70
2019-01-22T13:19:02.137Z,35.40
2019-01-22T13:21:33.063Z,35.40
2019-01-22T13:24:04.150Z,35.80
2019-01-22T13:26:36.106Z,36.50
2019-01-22T13:29:07.070Z,37.00
2019-01-22T13:31:38.135Z,37.30
2019-01-22T13:34:09.243Z,37.60
2019-01-22T13:36:40.184Z,37.30
2019-01-22T13:39:11.866Z,37.50
2019-01-22T13:41:42.845Z,37.90
2019-01-22T13:44:14.392Z,37.90
2019-01-22T13:46:45.523Z,38.20
2019-01-22T13:49:16.441Z,38.40
2019-01-22T13:51:47.380Z,38.70
2019-01-22T13:54:18.458Z,39.30
2019-01-22T13:56:49.358Z,39.50
2019-01-22T13:59:20.169Z,39.90
2019-01-22T14:01:51.141Z,40.50
2019-01-22T14:04:22.075Z,40.70
2019-01-22T14:06:53.022Z,40.90
2019-01-22T14:09:23.920Z,41.60
2019-01-22T14:11:54.892Z,42.50
2019-01-22T14:14:26.677Z,43.00
2019-01-22T14:16:58.137Z,43.40
2019-01-22T14:19:29.611Z,44.00
2019-01-22T14:22:01.484Z,44.90
2019-01-22T14:24:32.678Z,45.90
2019-01-22T14:27:04.375Z,46.80
2019-01-22T14:29:36.394Z,47.40
2019-01-22T14:32:07.946Z,47.90
2019-01-22T14:34:38.344Z,48.20
2019-01-22T14:37:09.793Z,48.40
2019-01-22T14:39:41.957Z,48.70
2019-01-22T14:42:14.559Z,49.20
2019-01-22T14:44:45.842Z,49.50
2019-01-22T14:47:16.171Z,49.80
2019-01-22T14:49:48.452Z,50.20
2019-01-22T14:52:19.757Z,50.60
2019-01-22T14:54:51.330Z,51.20
2019-01-22T14:57:23.032Z,51.60
2019-01-22T14:59:54.401Z,51.90
2019-01-22T15:02:25.996Z,52.30
2019-01-22T15:04:58.214Z,52.50
2019-01-22T15:07:29.572Z,52.60
2019-01-22T15:10:01.424Z,52.80
2019-01-22T15:12:33.935Z,52.90
2019-01-22T15:15:07.012Z,53.10
2019-01-22T15:17:38.857Z,53.10
2019-01-22T15:20:13.174Z,53.30
2019-01-22T15:22:45.385Z,53.60
2019-01-22T15:25:17.318Z,54.10
2019-01-22T15:27:48.817Z,54.60
2019-01-22T15:30:28.420Z,55.00
2019-01-22T15:32:59.929Z,55.20
2019-01-22T15:35:32.031Z,55.70
2019-01-22T15:38:03.724Z,55.80
2019-01-22T15:40:35.103Z,56.00
2019-01-22T15:43:06.666Z,56.30
2019-01-22T15:45:37.932Z,56.50
2019-01-22T15:48:09.467Z,56.80
2019-01-22T15:50:40.945Z,57.00
2019-01-22T15:53:13.015Z,57.20
2019-01-22T15:55:48.090Z,57.30
2019-01-22T15:58:15.820Z,57.40
2019-01-22T16:00:47.896Z,57.30
2019-01-22T16:03:18.762Z,57.40
2019-01-22T16:05:49.602Z,57.30
2019-01-22T16:08:20.783Z,57.30
2019-01-22T16:10:51.689Z,57.30
2019-01-22T16:13:22.668Z,57.50
2019-01-22T16:15:53.567Z,57.60
2019-01-22T16:18:24.526Z,57.50
2019-01-22T16:20:55.378Z,57.50
2019-01-22T16:23:26.278Z,57.40
2019-01-22T16:25:57.202Z,57.30
2019-01-22T16:28:28.112Z,57.20
2019-01-22T16:30:59.019Z,57.10
2019-01-22T16:33:29.925Z,57.10
2019-01-22T16:36:00.795Z,57.00
2019-01-22T16:38:31.681Z,57.10
2019-01-22T16:41:02.534Z,57.20
2019-01-22T16:43:33.424Z,57.20
2019-01-22T16:46:04.595Z,57.10
2019-01-22T16:48:35.547Z,57.00
2019-01-22T16:51:06.511Z,57.00
2019-01-22T16:53:37.614Z,57.00
2019-01-22T16:56:08.828Z,57.00
2019-01-22T16:58:39.998Z,57.10
2019-01-22T17:01:11.341Z,57.10
2019-01-22T17:03:42.300Z,57.30
2019-01-22T17:06:13.515Z,57.40
2019-01-22T17:08:45.531Z,57.50
2019-01-22T17:11:17.521Z,57.60
2019-01-22T17:13:49.592Z,57.60
2019-01-22T17:16:20.840Z,57.60
2019-01-22T17:18:53.907Z,57.70
2019-01-22T17:21:27.043Z,57.70
2019-01-22T17:23:58.873Z,57.80
2019-01-22T17:26:37.418Z,57.80
2019-01-22T17:29:10.391Z,57.60
2019-01-22T17:32:04.651Z,57.80
2019-01-22T17:34:44.898Z,57.90
2019-01-22T17:37:19.704Z,58.00
2019-01-22T17:39:47.690Z,58.30
2019-01-22T17:42:20.362Z,58.40
2019-01-22T17:44:53.283Z,58.40
2019-01-22T17:47:25.759Z,58.60
2019-01-22T17:49:57.826Z,58.70
2019-01-22T17:52:31.766Z,58.80
2019-01-22T17:55:03.618Z,58.90
2019-01-22T17:57:38.823Z,59.10
2019-01-22T18:00:14.873Z,59.30
2019-01-22T18:02:48.329Z,59.50
2019-01-22T18:05:20.473Z,60.00
2019-01-22T18:07:52.798Z,60.40
2019-01-22T18:10:27.989Z,60.90
2019-01-22T18:13:01.429Z,61.50
2019-01-22T18:15:34.080Z,61.80
2019-01-22T18:18:07.450Z,61.90
2019-01-22T18:20:38.967Z,62.00
2019-01-22T18:23:11.438Z,62.00
2019-01-22T18:25:42.991Z,62.00
2019-01-22T18:28:14.872Z,62.10
2019-01-22T18:30:47.215Z,62.10
2019-01-22T18:33:18.625Z,62.20
2019-01-22T18:35:51.326Z,62.20
2019-01-22T18:38:25.603Z,62.20
2019-01-22T18:40:57.319Z,62.10
2019-01-22T18:43:30.069Z,62.10
2019-01-22T18:46:04.057Z,62.10
2019-01-22T18:48:35.979Z,62.00
2019-01-22T18:51:08.386Z,61.90
2019-01-22T18:53:40.824Z,61.90
2019-01-22T18:56:15.515Z,62.60
2019-01-22T18:58:49.086Z,62.00
2019-01-22T19:01:20.756Z,61.80
2019-01-22T19:03:52.132Z,61.50
2019-01-22T19:06:23.481Z,61.30
2019-01-22T19:08:55.253Z,61.10
2019-01-22T19:11:26.539Z,60.90
2019-01-22T19:13:57.941Z,60.70
2019-01-22T19:16:29.381Z,60.30
2019-01-22T19:19:01.286Z,60.20
2019-01-22T19:21:32.725Z,60.10
2019-01-22T19:24:04.117Z,60.30
2019-01-22T19:26:35.523Z,61.20
2019-01-22T19:29:06.812Z,61.70
2019-01-22T19:31:38.179Z,62.20
2019-01-22T19:34:09.598Z,62.80
2019-01-22T19:36:41.059Z,63.00
2019-01-22T19:39:12.370Z,63.30
2019-01-22T19:41:43.721Z,63.60
2019-01-22T19:44:15.112Z,63.70
2019-01-22T19:46:46.501Z,63.90
2019-01-22T19:49:17.830Z,64.20
2019-01-22T19:51:49.020Z,64.20
2019-01-22T19:54:21.430Z,64.10
2019-01-22T19:56:54.005Z,64.20
2019-01-22T19:59:25.743Z,64.50
2019-01-22T20:01:57.215Z,64.50
2019-01-22T20:04:28.723Z,64.70
2019-01-22T20:07:00.162Z,64.80
2019-01-22T20:09:31.617Z,64.90
2019-01-22T20:12:03.161Z,64.90
2019-01-22T20:14:50.165Z,65.00
2019-01-22T20:17:21.702Z,64.90
2019-01-22T20:19:53.269Z,65.20
2019-01-22T20:22:24.701Z,65.10
2019-01-22T20:24:56.318Z,66.00
2019-01-22T20:27:28.817Z,65.70
2019-01-22T20:30:00.619Z,65.90
2019-01-22T20:32:32.501Z,66.10
2019-01-22T20:35:04.311Z,66.20
2019-01-22T20:37:35.657Z,66.30
2019-01-22T20:40:08.599Z,66.50
2019-01-22T20:42:39.954Z,66.50
2019-01-22T20:45:13.739Z,66.70
2019-01-22T20:47:45.202Z,66.60
2019-01-22T20:50:19.423Z,66.50
2019-01-22T20:52:49.880Z,66.40
2019-01-22T20:55:21.813Z,66.30
2019-01-22T20:57:55.204Z,66.00
2019-01-22T21:00:27.683Z,66.00
2019-01-22T21:02:59.241Z,65.80
2019-01-22T21:05:32.168Z,65.70
2019-01-22T21:08:03.910Z,65.30
2019-01-22T21:10:37.704Z,65.30
2019-01-22T21:13:10.631Z,65.40
2019-01-22T21:15:42.343Z,65.10
2019-01-22T21:18:13.997Z,64.50
2019-01-22T21:20:45.795Z,64.10
2019-01-22T21:23:17.137Z,63.90
2019-01-22T21:25:48.376Z,63.80
2019-01-22T21:28:21.254Z,63.90
2019-01-22T21:30:57.443Z,64.00
2019-01-22T21:33:30.788Z,64.40
2019-01-22T21:36:01.262Z,64.70
2019-01-22T21:38:32.549Z,65.00
2019-01-22T21:41:04.007Z,65.20
2019-01-22T21:43:35.396Z,65.30
2019-01-22T21:46:06.796Z,65.30
2019-01-22T21:48:37.273Z,65.20
2019-01-22T21:51:08.628Z,65.30
2019-01-22T21:53:40.877Z,65.10
2019-01-22T21:56:12.218Z,65.10
2019-01-22T21:58:43.384Z,65.00
2019-01-22T22:01:16.113Z,64.90
2019-01-22T22:03:47.477Z,64.80
2019-01-22T22:06:18.939Z,64.60
2019-01-22T22:08:50.238Z,64.40
2019-01-22T22:11:22.224Z,64.40
2019-01-22T22:13:53.544Z,64.10
2019-01-22T22:16:24.996Z,63.80
2019-01-22T22:18:56.389Z,63.60
2019-01-22T22:21:27.811Z,63.60
2019-01-22T22:23:59.164Z,63.60
2019-01-22T22:26:30.775Z,63.60
2019-01-22T22:29:02.046Z,63.50
2019-01-22T22:31:33.720Z,63.50
2019-01-22T22:34:05.289Z,63.40
2019-01-22T22:36:36.677Z,63.40
2019-01-22T22:39:09.778Z,63.30
2019-01-22T22:41:41.082Z,63.40
2019-01-22T22:44:12.475Z,63.30
2019-01-22T22:46:43.787Z,63.10
2019-01-22T22:49:15.121Z,63.00
2019-01-22T22:51:46.510Z,63.00
2019-01-22T22:54:17.997Z,63.10
2019-01-22T22:56:49.485Z,63.10
2019-01-22T22:59:20.917Z,63.10
2019-01-22T23:01:52.447Z,62.80
2019-01-22T23:04:23.727Z,62.90
2019-01-22T23:06:55.065Z,62.90
2019-01-22T23:09:26.286Z,62.90
2019-01-22T23:11:57.610Z,62.60
2019-01-22T23:14:29.078Z,62.40
2019-01-22T23:17:00.381Z,62.20
2019-01-22T23:19:31.836Z,62.00
2019-01-22T23:22:03.189Z,61.70
2019-01-22T23:24:34.482Z,61.50
2019-01-22T23:27:06.156Z,61.50
2019-01-22T23:29:38.455Z,61.60
2019-01-22T23:32:09.748Z,61.50
2019-01-22T23:34:40.921Z,61.50
2019-01-22T23:37:13.410Z,61.50
2019-01-22T23:39:44.512Z,61.50
2019-01-22T23:42:15.876Z,61.50
2019-01-22T23:44:47.017Z,61.20
2019-01-22T23:47:18.228Z,61.20
2019-01-22T23:49:49.494Z,60.90
2019-01-22T23:52:20.836Z,60.60
2019-01-22T23:54:51.824Z,60.20
2019-01-22T23:57:22.946Z,59.60
2019-01-22T23:59:54.156Z,59.40
